• Join FlightAware (Why Join?)
  • Login
  • US Flag 
08:41AM EDT


 

Airport Tracker/Info


-or-


 

Live Flight TrackerFlight Track Log ✈ UAL4336 ✈ 02-May-2013 ✈ KCMH - KIAH

Flight Track Log - Related Links

Times and Time Zones

All times are in EDT time to prevent confusion due to time zone crossing. See the UAL4336 flight status page for this flight to view local times or setup timezone preferences in your user account.

Time Position Orientation Groundspeed Altitude Reporting Facility
EDT Latitude Longitude Course Direction KTS MPH feet Rate Location/Type
06:42AM 40.0008 -82.8719 270° West 169 194 1,200  Level Indianapolis Center
06:43AM 40.0000 -82.7903 91° East 210 242 2,700 1,260 Climbing Indianapolis Center
06:44AM 39.9997 -82.7519 91° East 224 258 3,300 2,100 Climbing Indianapolis Center
06:45AM 40.0000 -83.3129 270° West  Level FlightAware Approximate
06:45AM 40.0322 -82.6692 63° Northeast 268 308 6,000  Level Indianapolis Center
06:46AM 40.0000 -83.4569 270° West  Level FlightAware Approximate
06:46AM 40.1017 -82.6900 347° North 279 321 8,100  Level Indianapolis Center
06:47AM 40.0000 -83.6008 270° West  Level FlightAware Approximate
06:47AM 40.1139 -82.7908 279° West 287 330 10,500  Level Indianapolis Center
06:48AM 40.1078 -82.8972 266° West 291 335 12,200 1,440 Climbing Indianapolis Center
06:49AM 40.1019 -83.0128 266° West 314 361 13,500 1,320 Climbing Indianapolis Center
06:50AM 40.0947 -83.1347 266° West 332 382 15,000 1,320 Climbing Indianapolis Center
06:51AM 40.0881 -83.2592 266° West 342 394 16,300 1,260 Climbing Indianapolis Center
06:52AM 40.0792 -83.4106 266° West 357 411 17,600 1,080 Climbing Indianapolis Center
06:53AM 40.0711 -83.5419 265° West 364 419 18,500 840 Climbing Indianapolis Center
06:54AM 40.0636 -83.6747 266° West 367 422 19,400 900 Climbing Indianapolis Center
06:55AM 40.0553 -83.8111 265° West 375 432 20,400 960 Climbing Indianapolis Center
06:56AM 40.0461 -83.9472 265° West 377 434 21,400 960 Climbing Indianapolis Center
06:57AM 40.0381 -84.0853 266° West 380 437 22,400 960 Climbing Indianapolis Center
06:58AM 40.0289 -84.2253 265° West 384 442 23,400 960 Climbing Indianapolis Center
06:59AM 40.0011 -84.3558 255° West 379 436 24,400 960 Climbing Indianapolis Center
07:00AM 39.9172 -84.4275 213° Southwest 372 428 25,400 900 Climbing Indianapolis Center
07:01AM 39.8189 -84.4575 193° South 361 415 26,300 900 Climbing Indianapolis Center
07:02AM 39.7200 -84.4900 194° South 362 417 27,300 960 Climbing Indianapolis Center
07:03AM 39.6214 -84.5189 193° South 361 415 28,300 960 Climbing Indianapolis Center
07:04AM 39.5200 -84.5506 194° South 367 422 29,300 960 Climbing Indianapolis Center
07:05AM 39.4214 -84.5817 194° South 365 420 30,300 900 Climbing Indianapolis Center
07:06AM 39.3200 -84.6128 193° South 369 425 31,200 900 Climbing Indianapolis Center
07:07AM 39.2181 -84.6428 193° South 373 429 32,200 960 Climbing Indianapolis Center
07:08AM 39.1150 -84.6747 194° South 377 434 33,200 960 Climbing Indianapolis Center
07:09AM 39.0200 -84.7275 203° Southwest 378 435 34,200 960 Climbing Indianapolis Center
07:10AM 38.9697 -84.8444 241° Southwest 377 434 35,200 840 Climbing Indianapolis Center
07:11AM 38.9297 -84.9619 246° West 367 422 36,000 360 Climbing Indianapolis Center
07:12AM 38.8872 -85.0836 246° West 373 429 36,000  Level Indianapolis Center
07:13AM 38.8364 -85.2344 247° West 383 441 36,000  Level Indianapolis Center
07:14AM 38.7928 -85.3581 246° West 381 438 36,000  Level Indianapolis Center
07:15AM 38.7503 -85.4806 246° West 378 435 36,000  Level Indianapolis Center
07:16AM 38.7078 -85.6053 246° West 381 438 36,000  Level Indianapolis Center
07:17AM 38.6647 -85.7261 246° West 375 432 36,000  Level Indianapolis Center
07:18AM 38.6242 -85.8467 247° West 364 419 36,000  Level Indianapolis Center
07:19AM 38.5814 -85.9642 245° Southwest 363 418 36,000  Level Indianapolis Center
07:20AM 38.5394 -86.0861 246° West 373 429 36,000  Level Indianapolis Center
07:21AM 38.4944 -86.2119 245° Southwest 384 442 36,000  Level Indianapolis Center
07:22AM 38.4506 -86.3336 245° Southwest 378 435 36,000  Level Indianapolis Center
07:23AM 38.4083 -86.4511 245° Southwest 365 420 36,000  Level Indianapolis Center
07:24AM 38.3664 -86.5681 245° Southwest 360 414 36,000  Level Indianapolis Center
07:25AM 38.3233 -86.6858 245° Southwest 364 419 36,000  Level Indianapolis Center
07:26AM 38.2797 -86.8061 245° Southwest 370 426 36,000  Level Indianapolis Center
07:27AM 38.2350 -86.9281 245° Southwest 372 428 36,000  Level Indianapolis Center
07:28AM 38.1872 -87.0631 246° West 378 435 36,000  Level Indianapolis Center
07:29AM 38.1442 -87.1792 245° Southwest 382 440 36,000  Level Indianapolis Center
07:30AM 38.0983 -87.3036 245° Southwest 384 442 36,000  Level Indianapolis Center
07:31AM 38.0433 -87.4533 245° Southwest 387 445 36,000  Level Indianapolis Center
07:32AM 37.9972 -87.5767 245° Southwest 387 445 36,000  Level Indianapolis Center
07:34AM 37.9514 -87.6989 245° Southwest 384 442 36,000  Level Indianapolis Center
07:35AM 37.8761 -87.7878 223° Southwest 378 435 36,000  Level Indianapolis Center
07:36AM 37.7789 -87.8331 200° South 372 428 36,000  Level Indianapolis Center
07:37AM 37.6847 -87.8778 201° Southwest 369 425 36,000  Level Indianapolis Center
07:38AM 37.5883 -87.9253 201° Southwest 368 423 36,000  Level Indianapolis Center
07:38AM 37.5378 -87.9586 208° Southwest 371 427 36,000  Level Memphis Center
07:39AM 37.4472 -88.0111 205° Southwest 371 427 36,000  Level Memphis Center
07:40AM 37.3675 -88.0892 218° Southwest 366 421 36,000  Level Memphis Center
07:41AM 37.2875 -88.1644 217° Southwest 366 421 36,000  Level Memphis Center
07:42AM 37.2056 -88.2447 218° Southwest 373 429 36,000  Level Memphis Center
07:43AM 37.1256 -88.3197 217° Southwest 373 429 36,000  Level Memphis Center
07:44AM 37.0436 -88.4000 218° Southwest 373 429 36,000  Level Memphis Center
07:45AM 36.9614 -88.4747 216° Southwest 373 429 36,000  Level Memphis Center
07:46AM 36.8811 -88.5542 218° Southwest 373 429 36,000  Level Memphis Center
07:47AM 36.7969 -88.6339 217° Southwest 373 429 36,000  Level Memphis Center
07:48AM 36.7125 -88.7133 217° Southwest 379 436 36,000  Level Memphis Center
07:49AM 36.6261 -88.7928 216° Southwest 385 443 36,000  Level Memphis Center
07:50AM 36.5417 -88.8719 217° Southwest 385 443 36,000  Level Memphis Center
07:51AM 36.4550 -88.9508 216° Southwest 385 443 36,000  Level Memphis Center
07:52AM 36.3767 -89.0244 217° Southwest 390 449 36,000  Level Memphis Center
07:53AM 36.2878 -89.1031 215° Southwest 390 449 36,000  Level Memphis Center
07:54AM 36.1989 -89.1867 217° Southwest 396 456 36,000  Level Memphis Center
07:55AM 36.1142 -89.2703 219° Southwest 401 461 36,000  Level Memphis Center
07:56AM 36.0294 -89.3508 218° Southwest 395 455 36,000  Level Memphis Center
07:57AM 35.9467 -89.4261 216° Southwest 390 449 36,000  Level Memphis Center
07:58AM 35.8658 -89.5014 217° Southwest 377 434 36,000  Level Memphis Center
07:59AM 35.7850 -89.5764 217° Southwest 372 428 36,000  Level Memphis Center
08:00AM 35.7083 -89.6489 218° Southwest 362 417 36,000  Level Memphis Center
08:01AM 35.6397 -89.7133 217° Southwest 342 394 36,000  Level Memphis Center
08:02AM 35.5631 -89.7881 218° Southwest 342 394 36,000  Level Memphis Center
08:03AM 35.4903 -89.8547 217° Southwest 337 388 36,000  Level Memphis Center
08:04AM 35.4156 -89.9214 216° Southwest 337 388 36,000  Level Memphis Center
08:05AM 35.3406 -89.9906 217° Southwest 337 388 36,000  Level Memphis Center
08:06AM 35.2656 -90.0594 217° Southwest 337 388 36,000  Level Memphis Center
08:07AM 35.1886 -90.1283 216° Southwest 342 394 36,000  Level Memphis Center
08:08AM 35.1075 -90.2047 218° Southwest 342 394 36,000  Level Memphis Center
08:09AM 35.0303 -90.2708 215° Southwest 342 394 36,000  Level Memphis Center
08:10AM 34.9531 -90.3444 218° Southwest 337 388 36,000  Level Memphis Center
08:11AM 34.8758 -90.4078 214° Southwest 342 394 36,000  Level Memphis Center
08:12AM 34.7986 -90.4786 217° Southwest 342 394 36,000  Level Memphis Center
08:13AM 34.7214 -90.5492 217° Southwest 347 399 36,000  Level Memphis Center
08:14AM 34.6461 -90.6147 216° Southwest 347 399 36,000  Level Memphis Center
08:15AM 34.5689 -90.6850 217° Southwest 347 399 36,000  Level Memphis Center
08:16AM 34.5122 -90.7806 234° Southwest 336 387 36,000  Level Memphis Center
08:17AM 34.4575 -90.8736 235° Southwest 348 400 36,000  Level Memphis Center
08:18AM 34.4008 -90.9689 234° Southwest 353 406 36,000  Level Memphis Center
08:19AM 34.3419 -91.0639 233° Southwest 353 406 36,000  Level Memphis Center
08:20AM 34.2933 -91.1492 235° Southwest 353 406 36,000  Level Memphis Center
08:21AM 34.2344 -91.2439 233° Southwest 353 406 36,000  Level Memphis Center
08:22AM 34.1731 -91.3389 232° Southwest 358 412 36,000  Level Memphis Center
08:23AM 34.1158 -91.4386 235° Southwest 364 419 36,000  Level Memphis Center
08:24AM 34.0525 -91.5356 232° Southwest 364 419 36,000  Level Memphis Center
08:25AM 33.9931 -91.6375 235° Southwest 364 419 36,000  Level Memphis Center
08:27AM 33.8664 -91.8481 234° Southwest 372 428 36,000  Level Fort Worth Center
08:28AM 33.8064 -91.9544 236° Southwest 377 434 36,000  Level Fort Worth Center
08:29AM 33.7378 -92.0561 231° Southwest 383 441 36,000  Level Fort Worth Center
08:30AM 33.6667 -92.1553 229° Southwest 389 448 36,000  Level Fort Worth Center
08:31AM 33.5642 -92.1989 200° South 389 448 36,000  Level Fort Worth Center
08:32AM 33.4528 -92.2303 193° South 390 449 36,000  Level Fort Worth Center
08:33AM 33.3417 -92.2667 195° South 403 464 36,000  Level Fort Worth Center
08:34AM 33.2242 -92.3008 194° South 425 489 36,000  Level Fort Worth Center
08:35AM 33.1067 -92.3372 195° South 438 504 36,000  Level Fort Worth Center
08:36AM 32.9850 -92.3714 193° South 431 496 36,000  Level Fort Worth Center
08:37AM 32.8756 -92.4047 194° South 413 475 36,000  Level Fort Worth Center
08:39AM 32.6633 -92.4719 195° South 400 460 36,000  Level Houston Center
08:40AM 32.5531 -92.5047 194° South 408 470 36,000  Level Houston Center
08:41AM 32.4347 -92.5367 193° South 429 494 36,000  Level Houston Center
08:42AM 32.3153 -92.5736 195° South 439 505 36,000  Level Houston Center
08:43AM 32.1914 -92.6089 194° South 452 520 36,000  Level Houston Center
08:44AM 32.0514 -92.6519 195° South 434 499 36,000  Level Houston Center
08:45AM 31.9497 -92.6961 200° South 397 457 36,000  Level Houston Center
08:46AM 31.8714 -92.7736 220° Southwest 373 429 36,000  Level Houston Center
08:47AM 31.7922 -92.8497 219° Southwest 370 426 36,000  Level Houston Center
08:48AM 31.7108 -92.9286 220° Southwest 377 434 36,000  Level Houston Center
08:49AM 31.6281 -93.0128 221° Southwest 388 447 36,000  Level Houston Center
08:50AM 31.5419 -93.0942 219° Southwest 396 456 36,000 -540 Level Houston Center
08:51AM 31.4389 -93.1933 219° Southwest 399 459 35,000 -540 Descending Houston Center
08:53AM 31.3550 -93.2742 219° Southwest 394 453 35,000 -300 Level Houston Center
08:54AM 31.3014 -93.3658 236° Southwest 363 418 34,500 -1,320 Descending Houston Center
08:55AM 31.2383 -93.4628 233° Southwest 360 414 32,400 -1,980 Descending Houston Center
08:56AM 31.1550 -93.5367 217° Southwest 377 434 30,500 -2,220 Descending Houston Center
08:57AM 31.0711 -93.6094 217° Southwest 378 435 27,900 -2,760 Descending Houston Center
08:58AM 30.9842 -93.6861 217° Southwest 391 450 24,900 -3,240 Descending Houston Center
08:59AM 30.8778 -93.7783 217° Southwest 399 459 21,300 -3,180 Descending Houston Center
09:00AM 30.7894 -93.8547 217° Southwest 398 458 18,400 -2,520 Descending Houston Center
09:01AM 30.7033 -93.9294 217° Southwest 392 451 16,200 -1,260 Descending Houston Center
09:02AM 30.6169 -94.0036 216° Southwest 389 448 15,900 -420 Descending Houston Center
09:03AM 30.5314 -94.0778 217° Southwest 388 447 15,400 -1,260 Descending Houston Center
09:04AM 30.4469 -94.1494 216° Southwest 380 437 13,400 -1,980 Descending Houston Center
09:05AM 30.3742 -94.2106 216° Southwest 369 425 12,000 -1,380 Descending Houston Center
09:05AM 30.3647 -94.2203 222° Southwest 373 429 12,000  Level Houston Center
09:06AM 30.2853 -94.2878 216° Southwest 378 435 12,000 -120 Level Houston Center
09:06AM 30.2636 -94.3064 217° Southwest 378 435 11,900  Descending Houston Center
09:07AM 30.2067 -94.3633 221° Southwest 340 391 12,000  Climbing Houston Center
09:07AM 30.1964 -94.3850 241° Southwest 345 397 11,900  Descending Houston Center
09:08AM 30.1617 -94.4611 242° Southwest 337 388 12,000 -120 Climbing Houston Center
09:08AM 30.1542 -94.4803 246° West 333 383 11,800 -1,380 Descending Houston Center
09:09AM 30.1300 -94.5450 247° West 285 328 10,600 -1,800 Descending Houston Center
09:09AM 30.1217 -94.5725 251° West 290 334 10,000 -1,800 Descending Houston Center
09:10AM 30.0983 -94.6314 245° Southwest 276 318 8,800 -1,500 Descending Houston Center
09:10AM 30.0906 -94.6525 247° West 276 318 8,500 -600 Descending Houston Center
09:11AM 30.0631 -94.7303 248° West 265 305 8,000 -660 Descending Houston Center
09:12AM 30.0364 -94.7961 245° Southwest 268 308 7,400 -780 Descending Houston Center
09:12AM 30.0342 -94.8086 258° West 265 305 7,200 -480 Descending Houston Center
09:13AM 30.0117 -94.8669 246° West 260 299 7,000 -240 Descending Houston Center
09:13AM 30.0058 -94.8844 249° West 260 299 7,000 -240 Level Houston Center
09:14AM 29.9892 -94.9397 251° West 217 250 6,800 -540 Descending Houston Center
09:14AM 29.9897 -94.9519 273° West 221 254 6,500 -1,380 Descending Houston Center
09:15AM 29.9936 -95.0092 275° West 213 245 5,400 -1,500 Descending Houston Center
09:15AM 29.9936 -95.0331 270° West 211 243 5,000 -1,080 Descending Houston Center
09:16AM 29.9919 -95.0817 268° West 206 237 4,200 -1,140 Descending Houston Center
09:16AM 29.9936 -95.0986 276° West 206 237 3,900 -1,080 Descending Houston Center
09:17AM 29.9919 -95.1492 268° West 201 231 3,100 -1,080 Descending Houston Center
09:17AM 29.9931 -95.1619 276° West 201 231 2,800 -1,080 Descending Houston Center